sensor_id;sensor_type;location;lat;lon;timestamp;P1;durP1;ratioP1;P2;durP2;ratioP2
70228;SDS011;57617;51.988;5.854;2023-01-16T00:01:47;7.53;;;1.73;;
70228;SDS011;57617;51.988;5.854;2023-01-16T00:04:12;3.90;;;1.40;;
70228;SDS011;57617;51.988;5.854;2023-01-16T00:06:37;6.23;;;1.60;;
70228;SDS011;57617;51.988;5.854;2023-01-16T00:09:04;6.10;;;1.63;;
70228;SDS011;57617;51.988;5.854;2023-01-16T00:11:29;4.88;;;1.60;;
70228;SDS011;57617;51.988;5.854;2023-01-16T00:13:55;4.72;;;1.58;;
70228;SDS011;57617;51.988;5.854;2023-01-16T00:16:20;4.93;;;1.60;;
70228;SDS011;57617;51.988;5.854;2023-01-16T00:18:46;4.83;;;1.77;;
70228;SDS011;57617;51.988;5.854;2023-01-16T00:21:12;4.53;;;1.90;;
70228;SDS011;57617;51.988;5.854;2023-01-16T00:23:37;4.85;;;2.00;;
70228;SDS011;57617;51.988;5.854;2023-01-16T00:26:06;7.33;;;2.30;;
70228;SDS011;57617;51.988;5.854;2023-01-16T00:28:33;7.65;;;2.30;;
70228;SDS011;57617;51.988;5.854;2023-01-16T00:30:58;5.80;;;2.57;;
70228;SDS011;57617;51.988;5.854;2023-01-16T00:33:23;7.30;;;3.03;;
70228;SDS011;57617;51.988;5.854;2023-01-16T00:35:48;4.80;;;2.75;;
70228;SDS011;57617;51.988;5.854;2023-01-16T00:38:14;7.43;;;3.05;;
70228;SDS011;57617;51.988;5.854;2023-01-16T00:40:39;6.93;;;2.83;;
70228;SDS011;57617;51.988;5.854;2023-01-16T00:43:05;8.23;;;3.40;;
70228;SDS011;57617;51.988;5.854;2023-01-16T00:45:30;8.57;;;3.60;;
70228;SDS011;57617;51.988;5.854;2023-01-16T00:47:55;8.57;;;3.53;;
70228;SDS011;57617;51.988;5.854;2023-01-16T00:50:21;6.93;;;4.00;;
70228;SDS011;57617;51.988;5.854;2023-01-16T00:52:46;8.17;;;3.93;;
70228;SDS011;57617;51.988;5.854;2023-01-16T00:55:11;9.90;;;4.73;;
70228;SDS011;57617;51.988;5.854;2023-01-16T00:57:37;11.33;;;6.00;;
70228;SDS011;57617;51.988;5.854;2023-01-16T01:00:03;11.70;;;6.70;;
70228;SDS011;57617;51.988;5.854;2023-01-16T01:02:29;14.00;;;6.93;;
70228;SDS011;57617;51.988;5.854;2023-01-16T01:04:54;13.33;;;7.00;;
70228;SDS011;57617;51.988;5.854;2023-01-16T01:07:19;11.93;;;6.63;;
70228;SDS011;57617;51.988;5.854;2023-01-16T01:09:44;16.60;;;7.30;;
70228;SDS011;57617;51.988;5.854;2023-01-16T01:12:10;16.63;;;7.22;;
70228;SDS011;57617;51.988;5.854;2023-01-16T01:14:35;13.33;;;6.40;;
70228;SDS011;57617;51.988;5.854;2023-01-16T01:17:00;12.02;;;6.10;;
70228;SDS011;57617;51.988;5.854;2023-01-16T01:19:25;12.50;;;6.53;;
70228;SDS011;57617;51.988;5.854;2023-01-16T01:21:51;13.70;;;6.72;;
70228;SDS011;57617;51.988;5.854;2023-01-16T01:24:16;13.27;;;7.10;;
70228;SDS011;57617;51.988;5.854;2023-01-16T01:26:41;14.83;;;7.67;;
70228;SDS011;57617;51.988;5.854;2023-01-16T01:29:07;12.97;;;7.53;;
70228;SDS011;57617;51.988;5.854;2023-01-16T01:31:32;14.25;;;7.55;;
70228;SDS011;57617;51.988;5.854;2023-01-16T01:33:57;13.52;;;7.40;;
70228;SDS011;57617;51.988;5.854;2023-01-16T01:36:22;15.03;;;6.90;;
70228;SDS011;57617;51.988;5.854;2023-01-16T01:38:48;14.90;;;7.20;;
70228;SDS011;57617;51.988;5.854;2023-01-16T01:41:15;12.95;;;6.78;;
70228;SDS011;57617;51.988;5.854;2023-01-16T01:43:45;14.60;;;7.03;;
70228;SDS011;57617;51.988;5.854;2023-01-16T01:46:14;11.80;;;6.40;;
70228;SDS011;57617;51.988;5.854;2023-01-16T01:48:43;11.20;;;5.90;;
70228;SDS011;57617;51.988;5.854;2023-01-16T01:51:11;11.50;;;5.57;;
70228;SDS011;57617;51.988;5.854;2023-01-16T01:53:45;13.40;;;5.67;;
70228;SDS011;57617;51.988;5.854;2023-01-16T01:56:22;14.17;;;5.57;;
70228;SDS011;57617;51.988;5.854;2023-01-16T01:58:55;9.50;;;5.15;;
70228;SDS011;57617;51.988;5.854;2023-01-16T02:01:23;11.80;;;5.05;;
70228;SDS011;57617;51.988;5.854;2023-01-16T02:03:51;9.20;;;4.50;;
70228;SDS011;57617;51.988;5.854;2023-01-16T02:06:25;10.35;;;4.18;;
70228;SDS011;57617;51.988;5.854;2023-01-16T02:09:13;12.73;;;4.07;;
70228;SDS011;57617;51.988;5.854;2023-01-16T02:11:42;9.23;;;3.70;;
70228;SDS011;57617;51.988;5.854;2023-01-16T02:14:15;11.80;;;3.60;;
70228;SDS011;57617;51.988;5.854;2023-01-16T02:16:41;11.37;;;3.30;;
70228;SDS011;57617;51.988;5.854;2023-01-16T02:19:43;10.30;;;3.28;;
70228;SDS011;57617;51.988;5.854;2023-01-16T02:25:35;7.60;;;2.90;;
70228;SDS011;57617;51.988;5.854;2023-01-16T02:42:24;5.40;;;2.30;;
70228;SDS011;57617;51.988;5.854;2023-01-16T02:45:21;6.97;;;2.13;;
70228;SDS011;57617;51.988;5.854;2023-01-16T02:47:55;8.83;;;1.77;;
70228;SDS011;57617;51.988;5.854;2023-01-16T02:50:30;6.10;;;2.13;;
70228;SDS011;57617;51.988;5.854;2023-01-16T02:56:07;4.78;;;1.42;;
70228;SDS011;57617;51.988;5.854;2023-01-16T02:58:35;6.70;;;1.83;;
70228;SDS011;57617;51.988;5.854;2023-01-16T03:01:12;5.90;;;1.50;;
70228;SDS011;57617;51.988;5.854;2023-01-16T03:03:42;6.70;;;1.63;;
70228;SDS011;57617;51.988;5.854;2023-01-16T03:06:43;10.35;;;1.98;;
70228;SDS011;57617;51.988;5.854;2023-01-16T03:09:18;8.07;;;1.87;;
70228;SDS011;57617;51.988;5.854;2023-01-16T03:12:15;5.77;;;1.57;;
70228;SDS011;57617;51.988;5.854;2023-01-16T03:15:03;8.75;;;1.75;;
70228;SDS011;57617;51.988;5.854;2023-01-16T03:17:39;5.43;;;1.67;;
70228;SDS011;57617;51.988;5.854;2023-01-16T03:20:13;7.47;;;1.53;;
70228;SDS011;57617;51.988;5.854;2023-01-16T03:33:31;4.67;;;1.37;;
70228;SDS011;57617;51.988;5.854;2023-01-16T03:36:13;7.23;;;1.83;;
70228;SDS011;57617;51.988;5.854;2023-01-16T03:38:45;5.07;;;1.63;;
70228;SDS011;57617;51.988;5.854;2023-01-16T03:41:13;5.93;;;1.27;;
70228;SDS011;57617;51.988;5.854;2023-01-16T03:43:41;4.43;;;1.37;;
70228;SDS011;57617;51.988;5.854;2023-01-16T03:46:15;6.10;;;1.40;;
70228;SDS011;57617;51.988;5.854;2023-01-16T03:48:49;7.20;;;1.50;;
70228;SDS011;57617;51.988;5.854;2023-01-16T03:51:20;8.80;;;1.47;;
70228;SDS011;57617;51.988;5.854;2023-01-16T03:54:02;7.33;;;1.40;;
70228;SDS011;57617;51.988;5.854;2023-01-16T03:56:34;7.10;;;1.30;;
70228;SDS011;57617;51.988;5.854;2023-01-16T03:59:05;5.67;;;1.37;;
70228;SDS011;57617;51.988;5.854;2023-01-16T04:01:36;10.17;;;1.50;;
70228;SDS011;57617;51.988;5.854;2023-01-16T04:04:09;5.27;;;1.40;;
70228;SDS011;57617;51.988;5.854;2023-01-16T04:06:43;3.67;;;1.20;;
70228;SDS011;57617;51.988;5.854;2023-01-16T04:09:15;6.22;;;1.30;;
70228;SDS011;57617;51.988;5.854;2023-01-16T04:11:49;8.13;;;1.63;;
70228;SDS011;57617;51.988;5.854;2023-01-16T04:14:16;7.97;;;1.40;;
70228;SDS011;57617;51.988;5.854;2023-01-16T04:16:44;8.47;;;1.40;;
70228;SDS011;57617;51.988;5.854;2023-01-16T04:19:11;11.33;;;1.37;;
70228;SDS011;57617;51.988;5.854;2023-01-16T04:21:41;7.27;;;1.63;;
70228;SDS011;57617;51.988;5.854;2023-01-16T04:24:07;3.15;;;1.08;;
70228;SDS011;57617;51.988;5.854;2023-01-16T04:26:33;7.13;;;1.43;;
70228;SDS011;57617;51.988;5.854;2023-01-16T04:28:58;4.67;;;1.27;;
70228;SDS011;57617;51.988;5.854;2023-01-16T04:31:23;9.87;;;1.60;;
70228;SDS011;57617;51.988;5.854;2023-01-16T04:33:49;6.80;;;1.33;;
70228;SDS011;57617;51.988;5.854;2023-01-16T04:36:15;6.43;;;1.10;;
70228;SDS011;57617;51.988;5.854;2023-01-16T04:38:40;6.20;;;1.73;;
70228;SDS011;57617;51.988;5.854;2023-01-16T04:41:06;5.50;;;1.57;;
70228;SDS011;57617;51.988;5.854;2023-01-16T04:43:31;7.57;;;1.60;;
70228;SDS011;57617;51.988;5.854;2023-01-16T04:45:56;7.70;;;1.55;;
70228;SDS011;57617;51.988;5.854;2023-01-16T04:48:21;5.53;;;1.57;;
70228;SDS011;57617;51.988;5.854;2023-01-16T04:50:47;6.43;;;1.60;;
70228;SDS011;57617;51.988;5.854;2023-01-16T04:53:14;8.57;;;1.67;;
70228;SDS011;57617;51.988;5.854;2023-01-16T04:55:39;3.85;;;1.50;;
70228;SDS011;57617;51.988;5.854;2023-01-16T04:58:04;10.33;;;1.90;;
70228;SDS011;57617;51.988;5.854;2023-01-16T05:00:29;6.97;;;1.57;;
70228;SDS011;57617;51.988;5.854;2023-01-16T05:02:55;5.50;;;1.60;;
70228;SDS011;57617;51.988;5.854;2023-01-16T05:05:20;9.57;;;1.60;;
70228;SDS011;57617;51.988;5.854;2023-01-16T05:07:45;5.87;;;1.47;;
70228;SDS011;57617;51.988;5.854;2023-01-16T05:10:30;4.10;;;1.30;;
70228;SDS011;57617;51.988;5.854;2023-01-16T05:12:56;6.80;;;1.57;;
70228;SDS011;57617;51.988;5.854;2023-01-16T05:15:21;5.93;;;1.43;;
70228;SDS011;57617;51.988;5.854;2023-01-16T05:17:46;3.03;;;1.10;;
70228;SDS011;57617;51.988;5.854;2023-01-16T05:20:12;3.60;;;1.40;;
70228;SDS011;57617;51.988;5.854;2023-01-16T05:22:38;7.07;;;1.53;;
70228;SDS011;57617;51.988;5.854;2023-01-16T05:25:03;6.67;;;1.80;;
70228;SDS011;57617;51.988;5.854;2023-01-16T05:27:29;5.77;;;1.40;;
70228;SDS011;57617;51.988;5.854;2023-01-16T05:29:54;5.33;;;1.60;;
70228;SDS011;57617;51.988;5.854;2023-01-16T05:32:19;6.37;;;1.70;;
70228;SDS011;57617;51.988;5.854;2023-01-16T05:34:44;5.70;;;2.00;;
70228;SDS011;57617;51.988;5.854;2023-01-16T05:37:10;6.43;;;1.90;;
70228;SDS011;57617;51.988;5.854;2023-01-16T05:39:35;5.10;;;1.97;;
70228;SDS011;57617;51.988;5.854;2023-01-16T05:42:00;6.20;;;1.80;;
70228;SDS011;57617;51.988;5.854;2023-01-16T05:44:25;7.03;;;1.80;;
70228;SDS011;57617;51.988;5.854;2023-01-16T05:46:51;13.20;;;2.13;;
70228;SDS011;57617;51.988;5.854;2023-01-16T05:49:16;10.52;;;2.25;;
70228;SDS011;57617;51.988;5.854;2023-01-16T05:51:41;8.83;;;2.27;;
70228;SDS011;57617;51.988;5.854;2023-01-16T05:54:09;7.10;;;2.10;;
70228;SDS011;57617;51.988;5.854;2023-01-16T05:56:35;8.27;;;2.20;;
70228;SDS011;57617;51.988;5.854;2023-01-16T05:59:00;6.43;;;2.00;;
70228;SDS011;57617;51.988;5.854;2023-01-16T06:01:26;6.80;;;1.93;;
70228;SDS011;57617;51.988;5.854;2023-01-16T06:03:51;5.80;;;2.20;;
70228;SDS011;57617;51.988;5.854;2023-01-16T06:06:16;8.67;;;2.20;;
70228;SDS011;57617;51.988;5.854;2023-01-16T06:08:41;6.73;;;2.87;;
70228;SDS011;57617;51.988;5.854;2023-01-16T06:11:07;7.67;;;2.63;;
70228;SDS011;57617;51.988;5.854;2023-01-16T06:13:32;8.40;;;2.40;;
70228;SDS011;57617;51.988;5.854;2023-01-16T06:15:57;8.40;;;2.10;;
70228;SDS011;57617;51.988;5.854;2023-01-16T06:18:23;7.20;;;2.53;;
70228;SDS011;57617;51.988;5.854;2023-01-16T06:20:48;5.60;;;1.77;;
70228;SDS011;57617;51.988;5.854;2023-01-16T06:23:13;8.90;;;2.00;;
70228;SDS011;57617;51.988;5.854;2023-01-16T06:25:38;8.07;;;2.17;;
70228;SDS011;57617;51.988;5.854;2023-01-16T06:28:04;5.93;;;1.70;;
70228;SDS011;57617;51.988;5.854;2023-01-16T06:30:29;6.07;;;1.60;;
70228;SDS011;57617;51.988;5.854;2023-01-16T06:32:54;9.00;;;1.90;;
70228;SDS011;57617;51.988;5.854;2023-01-16T06:35:20;4.20;;;1.60;;
70228;SDS011;57617;51.988;5.854;2023-01-16T06:37:45;5.27;;;1.40;;
70228;SDS011;57617;51.988;5.854;2023-01-16T06:40:10;5.03;;;1.40;;
70228;SDS011;57617;51.988;5.854;2023-01-16T06:42:36;4.33;;;1.40;;
70228;SDS011;57617;51.988;5.854;2023-01-16T06:45:01;6.10;;;1.50;;
70228;SDS011;57617;51.988;5.854;2023-01-16T06:47:27;7.43;;;1.33;;
70228;SDS011;57617;51.988;5.854;2023-01-16T06:49:52;4.13;;;1.37;;
70228;SDS011;57617;51.988;5.854;2023-01-16T06:52:18;3.50;;;1.17;;
70228;SDS011;57617;51.988;5.854;2023-01-16T06:54:43;4.70;;;1.20;;
70228;SDS011;57617;51.988;5.854;2023-01-16T06:57:09;2.33;;;1.20;;
70228;SDS011;57617;51.988;5.854;2023-01-16T06:59:34;4.73;;;1.20;;
70228;SDS011;57617;51.988;5.854;2023-01-16T07:01:59;5.53;;;1.50;;
70228;SDS011;57617;51.988;5.854;2023-01-16T07:04:24;4.43;;;1.27;;
70228;SDS011;57617;51.988;5.854;2023-01-16T07:06:50;8.20;;;1.40;;
70228;SDS011;57617;51.988;5.854;2023-01-16T07:09:15;3.73;;;1.30;;
70228;SDS011;57617;51.988;5.854;2023-01-16T07:11:41;5.53;;;1.30;;
70228;SDS011;57617;51.988;5.854;2023-01-16T07:14:07;7.57;;;1.30;;
70228;SDS011;57617;51.988;5.854;2023-01-16T07:16:51;3.47;;;1.23;;
70228;SDS011;57617;51.988;5.854;2023-01-16T07:19:36;5.23;;;1.40;;
70228;SDS011;57617;51.988;5.854;2023-01-16T07:22:19;9.45;;;1.30;;
70228;SDS011;57617;51.988;5.854;2023-01-16T07:25:00;6.13;;;1.67;;
70228;SDS011;57617;51.988;5.854;2023-01-16T07:27:28;10.87;;;2.07;;
70228;SDS011;57617;51.988;5.854;2023-01-16T07:29:54;6.80;;;1.70;;
70228;SDS011;57617;51.988;5.854;2023-01-16T07:32:20;7.50;;;2.58;;
70228;SDS011;57617;51.988;5.854;2023-01-16T07:34:45;2.93;;;1.70;;
70228;SDS011;57617;51.988;5.854;2023-01-16T07:37:11;9.77;;;2.23;;
70228;SDS011;57617;51.988;5.854;2023-01-16T07:39:36;5.95;;;1.90;;
70228;SDS011;57617;51.988;5.854;2023-01-16T07:42:05;6.90;;;1.60;;
70228;SDS011;57617;51.988;5.854;2023-01-16T07:44:32;6.90;;;2.07;;
70228;SDS011;57617;51.988;5.854;2023-01-16T07:46:58;4.68;;;1.98;;
70228;SDS011;57617;51.988;5.854;2023-01-16T07:49:23;10.37;;;1.63;;
70228;SDS011;57617;51.988;5.854;2023-01-16T07:51:49;7.00;;;1.87;;
70228;SDS011;57617;51.988;5.854;2023-01-16T07:54:14;5.93;;;2.13;;
70228;SDS011;57617;51.988;5.854;2023-01-16T07:56:39;5.97;;;1.95;;
70228;SDS011;57617;51.988;5.854;2023-01-16T07:59:04;5.47;;;2.03;;
70228;SDS011;57617;51.988;5.854;2023-01-16T08:01:30;7.40;;;2.00;;
70228;SDS011;57617;51.988;5.854;2023-01-16T08:03:56;4.13;;;1.80;;
70228;SDS011;57617;51.988;5.854;2023-01-16T08:06:21;10.73;;;2.15;;
70228;SDS011;57617;51.988;5.854;2023-01-16T08:08:46;6.32;;;2.05;;
70228;SDS011;57617;51.988;5.854;2023-01-16T08:11:12;9.83;;;2.33;;
70228;SDS011;57617;51.988;5.854;2023-01-16T08:13:55;8.77;;;2.00;;
70228;SDS011;57617;51.988;5.854;2023-01-16T08:16:21;4.28;;;1.98;;
70228;SDS011;57617;51.988;5.854;2023-01-16T08:18:46;7.37;;;2.10;;
70228;SDS011;57617;51.988;5.854;2023-01-16T08:21:13;5.55;;;1.85;;
70228;SDS011;57617;51.988;5.854;2023-01-16T08:23:40;5.30;;;1.75;;
70228;SDS011;57617;51.988;5.854;2023-01-16T08:26:05;2.08;;;1.13;;
70228;SDS011;57617;51.988;5.854;2023-01-16T08:28:30;6.45;;;1.40;;
70228;SDS011;57617;51.988;5.854;2023-01-16T08:30:55;7.50;;;1.55;;
70228;SDS011;57617;51.988;5.854;2023-01-16T08:33:21;2.20;;;1.20;;
70228;SDS011;57617;51.988;5.854;2023-01-16T08:35:46;5.60;;;1.33;;
70228;SDS011;57617;51.988;5.854;2023-01-16T08:38:11;5.20;;;1.70;;
70228;SDS011;57617;51.988;5.854;2023-01-16T08:40:36;5.82;;;1.55;;
70228;SDS011;57617;51.988;5.854;2023-01-16T08:43:02;4.87;;;1.23;;
70228;SDS011;57617;51.988;5.854;2023-01-16T08:45:46;6.43;;;1.70;;
70228;SDS011;57617;51.988;5.854;2023-01-16T08:48:30;3.90;;;1.27;;
70228;SDS011;57617;51.988;5.854;2023-01-16T08:51:18;9.20;;;1.40;;
70228;SDS011;57617;51.988;5.854;2023-01-16T08:53:48;4.13;;;1.37;;
70228;SDS011;57617;51.988;5.854;2023-01-16T08:56:14;3.53;;;1.13;;
70228;SDS011;57617;51.988;5.854;2023-01-16T08:58:39;5.07;;;1.40;;
70228;SDS011;57617;51.988;5.854;2023-01-16T09:01:05;6.43;;;1.60;;
70228;SDS011;57617;51.988;5.854;2023-01-16T09:03:30;4.53;;;1.38;;
70228;SDS011;57617;51.988;5.854;2023-01-16T09:05:55;7.67;;;1.43;;
70228;SDS011;57617;51.988;5.854;2023-01-16T09:08:21;4.00;;;1.40;;
70228;SDS011;57617;51.988;5.854;2023-01-16T09:10:46;3.25;;;1.60;;
70228;SDS011;57617;51.988;5.854;2023-01-16T09:13:31;4.53;;;1.50;;
70228;SDS011;57617;51.988;5.854;2023-01-16T09:16:24;7.25;;;1.83;;
70228;SDS011;57617;51.988;5.854;2023-01-16T09:18:50;7.23;;;1.77;;
70228;SDS011;57617;51.988;5.854;2023-01-16T09:21:16;7.10;;;2.20;;
70228;SDS011;57617;51.988;5.854;2023-01-16T09:23:44;6.20;;;2.50;;
70228;SDS011;57617;51.988;5.854;2023-01-16T09:26:09;9.93;;;2.70;;
70228;SDS011;57617;51.988;5.854;2023-01-16T09:28:35;7.40;;;2.40;;
70228;SDS011;57617;51.988;5.854;2023-01-16T09:31:01;5.50;;;2.53;;
70228;SDS011;57617;51.988;5.854;2023-01-16T09:33:26;9.03;;;2.70;;
70228;SDS011;57617;51.988;5.854;2023-01-16T09:35:51;10.30;;;2.87;;
70228;SDS011;57617;51.988;5.854;2023-01-16T09:38:17;8.98;;;3.38;;
70228;SDS011;57617;51.988;5.854;2023-01-16T09:40:46;6.73;;;2.83;;
70228;SDS011;57617;51.988;5.854;2023-01-16T09:46:14;11.80;;;2.83;;
70228;SDS011;57617;51.988;5.854;2023-01-16T09:48:46;6.78;;;2.90;;
70228;SDS011;57617;51.988;5.854;2023-01-16T09:51:16;5.87;;;2.80;;
70228;SDS011;57617;51.988;5.854;2023-01-16T09:56:40;6.30;;;2.90;;
70228;SDS011;57617;51.988;5.854;2023-01-16T09:59:27;6.00;;;3.00;;
70228;SDS011;57617;51.988;5.854;2023-01-16T10:02:03;5.93;;;2.70;;
70228;SDS011;57617;51.988;5.854;2023-01-16T10:04:35;6.30;;;3.38;;
70228;SDS011;57617;51.988;5.854;2023-01-16T10:12:30;5.68;;;2.58;;
70228;SDS011;57617;51.988;5.854;2023-01-16T10:17:43;5.70;;;2.93;;
70228;SDS011;57617;51.988;5.854;2023-01-16T10:20:16;6.72;;;2.90;;
70228;SDS011;57617;51.988;5.854;2023-01-16T10:25:26;8.32;;;2.63;;
70228;SDS011;57617;51.988;5.854;2023-01-16T10:30:33;5.80;;;2.50;;
70228;SDS011;57617;51.988;5.854;2023-01-16T10:33:06;6.07;;;2.47;;
70228;SDS011;57617;51.988;5.854;2023-01-16T10:35:39;5.73;;;2.63;;
70228;SDS011;57617;51.988;5.854;2023-01-16T10:41:26;5.43;;;2.38;;
70228;SDS011;57617;51.988;5.854;2023-01-16T10:44:58;9.48;;;3.95;;
70228;SDS011;57617;51.988;5.854;2023-01-16T10:47:25;7.87;;;2.40;;
70228;SDS011;57617;51.988;5.854;2023-01-16T10:50:11;4.37;;;2.40;;
70228;SDS011;57617;51.988;5.854;2023-01-16T10:52:38;6.97;;;2.70;;
70228;SDS011;57617;51.988;5.854;2023-01-16T10:55:04;6.03;;;2.70;;
70228;SDS011;57617;51.988;5.854;2023-01-16T10:57:30;4.27;;;2.40;;
70228;SDS011;57617;51.988;5.854;2023-01-16T11:00:05;8.70;;;2.80;;
70228;SDS011;57617;51.988;5.854;2023-01-16T11:02:40;5.38;;;2.60;;
70228;SDS011;57617;51.988;5.854;2023-01-16T11:05:27;6.60;;;2.38;;
70228;SDS011;57617;51.988;5.854;2023-01-16T11:08:30;8.35;;;3.35;;
70228;SDS011;57617;51.988;5.854;2023-01-16T11:10:49;8.38;;;2.78;;
70228;SDS011;57617;51.988;5.854;2023-01-16T11:13:25;4.87;;;2.00;;
70228;SDS011;57617;51.988;5.854;2023-01-16T11:18:55;12.02;;;3.90;;
70228;SDS011;57617;51.988;5.854;2023-01-16T11:21:30;11.30;;;3.17;;
70228;SDS011;57617;51.988;5.854;2023-01-16T11:23:57;5.43;;;2.30;;
70228;SDS011;57617;51.988;5.854;2023-01-16T11:26:25;7.55;;;2.30;;
70228;SDS011;57617;51.988;5.854;2023-01-16T11:28:51;7.93;;;3.30;;
70228;SDS011;57617;51.988;5.854;2023-01-16T11:31:25;8.07;;;3.23;;
70228;SDS011;57617;51.988;5.854;2023-01-16T11:34:02;5.03;;;2.45;;
70228;SDS011;57617;51.988;5.854;2023-01-16T11:36:35;4.43;;;2.15;;
70228;SDS011;57617;51.988;5.854;2023-01-16T11:39:03;3.83;;;1.73;;
70228;SDS011;57617;51.988;5.854;2023-01-16T11:41:35;2.53;;;1.63;;
70228;SDS011;57617;51.988;5.854;2023-01-16T11:47:05;2.33;;;1.23;;
70228;SDS011;57617;51.988;5.854;2023-01-16T11:49:36;1.97;;;1.00;;
70228;SDS011;57617;51.988;5.854;2023-01-16T11:52:03;6.43;;;1.20;;
70228;SDS011;57617;51.988;5.854;2023-01-16T11:54:33;2.85;;;1.23;;
70228;SDS011;57617;51.988;5.854;2023-01-16T11:57:09;3.38;;;1.50;;
70228;SDS011;57617;51.988;5.854;2023-01-16T12:06:03;2.22;;;0.85;;
70228;SDS011;57617;51.988;5.854;2023-01-16T12:08:47;2.15;;;0.93;;
70228;SDS011;57617;51.988;5.854;2023-01-16T12:14:33;2.58;;;0.88;;
70228;SDS011;57617;51.988;5.854;2023-01-16T12:20:00;3.67;;;1.80;;
70228;SDS011;57617;51.988;5.854;2023-01-16T12:22:55;5.90;;;1.77;;
70228;SDS011;57617;51.988;5.854;2023-01-16T12:28:29;1.92;;;1.13;;
70228;SDS011;57617;51.988;5.854;2023-01-16T12:36:38;2.22;;;1.20;;
70228;SDS011;57617;51.988;5.854;2023-01-16T12:39:26;2.33;;;1.50;;
70228;SDS011;57617;51.988;5.854;2023-01-16T12:42:08;3.58;;;1.88;;
70228;SDS011;57617;51.988;5.854;2023-01-16T12:55:37;4.80;;;1.30;;
70228;SDS011;57617;51.988;5.854;2023-01-16T12:58:25;6.95;;;1.33;;
70228;SDS011;57617;51.988;5.854;2023-01-16T13:03:39;5.20;;;2.45;;
70228;SDS011;57617;51.988;5.854;2023-01-16T13:06:17;4.15;;;2.30;;
70228;SDS011;57617;51.988;5.854;2023-01-16T13:08:59;3.35;;;1.30;;
70228;SDS011;57617;51.988;5.854;2023-01-16T13:11:32;2.15;;;1.08;;
70228;SDS011;57617;51.988;5.854;2023-01-16T13:14:22;1.50;;;1.00;;
70228;SDS011;57617;51.988;5.854;2023-01-16T13:17:34;2.80;;;1.20;;
70228;SDS011;57617;51.988;5.854;2023-01-16T13:19:46;3.43;;;1.60;;
70228;SDS011;57617;51.988;5.854;2023-01-16T13:22:24;4.00;;;1.20;;
70228;SDS011;57617;51.988;5.854;2023-01-16T13:25:04;2.13;;;1.00;;
70228;SDS011;57617;51.988;5.854;2023-01-16T13:27:39;2.67;;;1.10;;
70228;SDS011;57617;51.988;5.854;2023-01-16T13:30:09;2.88;;;1.30;;
70228;SDS011;57617;51.988;5.854;2023-01-16T13:32:40;3.17;;;1.50;;
70228;SDS011;57617;51.988;5.854;2023-01-16T13:43:32;1.63;;;0.80;;
70228;SDS011;57617;51.988;5.854;2023-01-16T13:46:21;2.03;;;0.85;;
70228;SDS011;57617;51.988;5.854;2023-01-16T13:48:54;1.90;;;0.80;;
70228;SDS011;57617;51.988;5.854;2023-01-16T13:51:23;1.30;;;0.90;;
70228;SDS011;57617;51.988;5.854;2023-01-16T13:53:50;1.87;;;0.80;;
70228;SDS011;57617;51.988;5.854;2023-01-16T13:56:24;6.25;;;1.05;;
70228;SDS011;57617;51.988;5.854;2023-01-16T14:01:57;5.28;;;1.92;;
70228;SDS011;57617;51.988;5.854;2023-01-16T14:06:52;1.50;;;1.00;;
70228;SDS011;57617;51.988;5.854;2023-01-16T14:12:31;3.25;;;1.50;;
70228;SDS011;57617;51.988;5.854;2023-01-16T14:15:14;3.92;;;1.92;;
70228;SDS011;57617;51.988;5.854;2023-01-16T14:18:13;6.43;;;3.30;;
70228;SDS011;57617;51.988;5.854;2023-01-16T14:20:48;7.20;;;2.85;;
70228;SDS011;57617;51.988;5.854;2023-01-16T14:23:36;20.33;;;8.23;;
70228;SDS011;57617;51.988;5.854;2023-01-16T14:26:25;6.45;;;2.63;;
70228;SDS011;57617;51.988;5.854;2023-01-16T14:28:55;5.32;;;2.17;;
70228;SDS011;57617;51.988;5.854;2023-01-16T14:31:25;4.63;;;2.20;;
70228;SDS011;57617;51.988;5.854;2023-01-16T14:33:59;4.07;;;1.30;;
70228;SDS011;57617;51.988;5.854;2023-01-16T14:36:26;4.07;;;1.80;;
70228;SDS011;57617;51.988;5.854;2023-01-16T14:38:53;2.67;;;1.70;;
70228;SDS011;57617;51.988;5.854;2023-01-16T14:41:20;9.17;;;3.83;;
70228;SDS011;57617;51.988;5.854;2023-01-16T14:44:14;6.77;;;3.30;;
70228;SDS011;57617;51.988;5.854;2023-01-16T14:47:22;13.18;;;5.53;;
70228;SDS011;57617;51.988;5.854;2023-01-16T14:55:50;8.18;;;3.67;;
70228;SDS011;57617;51.988;5.854;2023-01-16T14:58:23;39.10;;;15.40;;
70228;SDS011;57617;51.988;5.854;2023-01-16T15:00:51;8.75;;;4.18;;
70228;SDS011;57617;51.988;5.854;2023-01-16T15:03:22;10.93;;;4.60;;
70228;SDS011;57617;51.988;5.854;2023-01-16T15:05:56;6.07;;;3.15;;
70228;SDS011;57617;51.988;5.854;2023-01-16T15:08:27;7.30;;;3.42;;
70228;SDS011;57617;51.988;5.854;2023-01-16T15:10:59;9.93;;;4.90;;
70228;SDS011;57617;51.988;5.854;2023-01-16T15:13:53;17.45;;;6.50;;
70228;SDS011;57617;51.988;5.854;2023-01-16T15:16:46;64.53;;;13.20;;
70228;SDS011;57617;51.988;5.854;2023-01-16T15:19:33;11.32;;;5.88;;
70228;SDS011;57617;51.988;5.854;2023-01-16T15:22:32;6.30;;;3.42;;
70228;SDS011;57617;51.988;5.854;2023-01-16T15:27:51;7.32;;;3.40;;
70228;SDS011;57617;51.988;5.854;2023-01-16T15:30:35;8.47;;;3.77;;
70228;SDS011;57617;51.988;5.854;2023-01-16T15:33:01;7.85;;;4.63;;
70228;SDS011;57617;51.988;5.854;2023-01-16T15:35:56;4.88;;;3.20;;
70228;SDS011;57617;51.988;5.854;2023-01-16T15:38:23;10.55;;;4.15;;
70228;SDS011;57617;51.988;5.854;2023-01-16T15:40:50;4.82;;;2.95;;
70228;SDS011;57617;51.988;5.854;2023-01-16T15:43:16;7.85;;;3.70;;
70228;SDS011;57617;51.988;5.854;2023-01-16T15:46:13;6.10;;;3.53;;
70228;SDS011;57617;51.988;5.854;2023-01-16T15:49:16;5.78;;;3.33;;
70228;SDS011;57617;51.988;5.854;2023-01-16T15:52:17;5.13;;;3.15;;
70228;SDS011;57617;51.988;5.854;2023-01-16T15:54:43;5.95;;;3.30;;
70228;SDS011;57617;51.988;5.854;2023-01-16T15:57:15;7.88;;;3.90;;
70228;SDS011;57617;51.988;5.854;2023-01-16T15:59:52;6.73;;;3.43;;
70228;SDS011;57617;51.988;5.854;2023-01-16T16:02:23;5.95;;;3.40;;
70228;SDS011;57617;51.988;5.854;2023-01-16T16:04:56;6.28;;;3.50;;
70228;SDS011;57617;51.988;5.854;2023-01-16T16:07:24;6.72;;;3.25;;
70228;SDS011;57617;51.988;5.854;2023-01-16T16:09:52;8.82;;;3.90;;
70228;SDS011;57617;51.988;5.854;2023-01-16T16:12:19;8.40;;;4.38;;
70228;SDS011;57617;51.988;5.854;2023-01-16T16:14:45;6.80;;;4.10;;
70228;SDS011;57617;51.988;5.854;2023-01-16T16:17:34;14.63;;;7.45;;
70228;SDS011;57617;51.988;5.854;2023-01-16T16:28:28;14.98;;;6.78;;
70228;SDS011;57617;51.988;5.854;2023-01-16T16:30:59;12.43;;;6.10;;
70228;SDS011;57617;51.988;5.854;2023-01-16T16:33:27;15.90;;;7.05;;
70228;SDS011;57617;51.988;5.854;2023-01-16T16:35:55;16.80;;;8.77;;
70228;SDS011;57617;51.988;5.854;2023-01-16T16:38:40;13.33;;;6.97;;
70228;SDS011;57617;51.988;5.854;2023-01-16T16:43:50;11.77;;;5.70;;
70228;SDS011;57617;51.988;5.854;2023-01-16T16:48:50;12.60;;;6.03;;
70228;SDS011;57617;51.988;5.854;2023-01-16T16:51:20;12.65;;;6.70;;
70228;SDS011;57617;51.988;5.854;2023-01-16T16:53:48;40.75;;;12.98;;
70228;SDS011;57617;51.988;5.854;2023-01-16T16:56:20;16.58;;;8.00;;
70228;SDS011;57617;51.988;5.854;2023-01-16T16:58:49;20.60;;;9.00;;
70228;SDS011;57617;51.988;5.854;2023-01-16T17:01:16;15.98;;;8.00;;
70228;SDS011;57617;51.988;5.854;2023-01-16T17:03:45;11.87;;;5.80;;
70228;SDS011;57617;51.988;5.854;2023-01-16T17:06:14;14.75;;;7.53;;
70228;SDS011;57617;51.988;5.854;2023-01-16T17:08:45;12.13;;;6.37;;
70228;SDS011;57617;51.988;5.854;2023-01-16T17:11:11;8.43;;;4.20;;
70228;SDS011;57617;51.988;5.854;2023-01-16T17:13:37;7.68;;;4.10;;
70228;SDS011;57617;51.988;5.854;2023-01-16T17:16:03;6.38;;;3.53;;
70228;SDS011;57617;51.988;5.854;2023-01-16T17:18:31;17.83;;;10.77;;
70228;SDS011;57617;51.988;5.854;2023-01-16T17:20:57;8.57;;;5.07;;
70228;SDS011;57617;51.988;5.854;2023-01-16T17:23:23;8.35;;;4.85;;